createdAt,value
2022-12-11T00:02:19.523Z,93.16
2022-12-11T00:04:51.896Z,93.07
2022-12-11T00:07:24.193Z,92.93
2022-12-11T00:09:58.133Z,93.05
2022-12-11T00:12:30.693Z,92.96
2022-12-11T00:15:03.031Z,92.94
2022-12-11T00:17:35.176Z,92.96
2022-12-11T00:20:09.348Z,93.00
2022-12-11T00:22:41.445Z,93.12
2022-12-11T00:25:13.785Z,93.17
2022-12-11T00:27:48.513Z,93.21
2022-12-11T00:30:20.809Z,93.42
2022-12-11T00:32:54.119Z,93.30
2022-12-11T00:35:26.521Z,93.37
2022-12-11T00:37:58.671Z,93.51
2022-12-11T00:40:30.802Z,93.44
2022-12-11T00:43:03.251Z,93.45
2022-12-11T00:45:38.994Z,93.48
2022-12-11T00:48:11.617Z,93.57
2022-12-11T00:50:44.128Z,93.49
2022-12-11T00:53:16.304Z,93.40
2022-12-11T00:55:48.428Z,93.25
2022-12-11T00:58:20.862Z,93.23
2022-12-11T01:00:53.392Z,93.25
2022-12-11T01:03:25.586Z,93.00
2022-12-11T01:05:58.091Z,92.88
2022-12-11T01:08:34.061Z,92.79
2022-12-11T01:11:12.705Z,92.92
2022-12-11T01:13:46.379Z,92.96
2022-12-11T01:16:18.972Z,92.90
2022-12-11T01:18:51.126Z,93.11
2022-12-11T01:21:23.285Z,93.20
2022-12-11T01:23:55.587Z,93.00
2022-12-11T01:26:27.691Z,93.23
2022-12-11T01:29:00.255Z,93.15
2022-12-11T01:31:32.562Z,93.27
2022-12-11T01:34:04.805Z,93.34
2022-12-11T01:36:36.985Z,93.44
2022-12-11T01:39:09.277Z,93.48
2022-12-11T01:41:41.438Z,93.35
2022-12-11T01:44:44.196Z,93.33
2022-12-11T01:47:16.895Z,93.37
2022-12-11T01:49:49.030Z,93.30
2022-12-11T01:52:23.688Z,93.57
2022-12-11T01:54:56.401Z,93.66
2022-12-11T01:57:28.627Z,93.66
2022-12-11T02:00:00.850Z,93.78
2022-12-11T02:02:34.335Z,93.91
2022-12-11T02:05:09.420Z,93.88
2022-12-11T02:07:45.825Z,93.99
2022-12-11T02:10:18.500Z,94.16
2022-12-11T02:13:00.725Z,94.12
2022-12-11T02:15:38.505Z,94.10
2022-12-11T02:18:21.472Z,94.38
2022-12-11T02:21:02.792Z,94.39
2022-12-11T02:23:53.989Z,94.20
2022-12-11T02:26:41.582Z,94.01
2022-12-11T02:29:19.355Z,94.11
2022-12-11T02:31:57.840Z,94.39
2022-12-11T02:34:35.352Z,94.52
2022-12-11T02:37:12.651Z,94.81
2022-12-11T02:39:47.285Z,94.64
2022-12-11T02:42:21.586Z,94.63
2022-12-11T02:44:55.370Z,94.71
2022-12-11T02:47:31.352Z,94.31
2022-12-11T02:50:08.656Z,94.51
2022-12-11T02:52:42.438Z,94.66
2022-12-11T02:55:16.824Z,94.56
2022-12-11T02:57:52.690Z,94.68
2022-12-11T03:00:25.516Z,94.83
2022-12-11T03:02:58.052Z,94.48
2022-12-11T03:05:31.019Z,94.41
2022-12-11T03:08:03.284Z,94.03
2022-12-11T03:10:35.780Z,94.05
2022-12-11T03:13:08.335Z,94.19
2022-12-11T03:15:56.449Z,94.10
2022-12-11T03:18:37.174Z,93.86
2022-12-11T03:21:15.933Z,93.87
2022-12-11T03:23:55.875Z,94.10
2022-12-11T03:26:28.166Z,94.31
2022-12-11T03:29:04.090Z,94.40
2022-12-11T03:31:44.053Z,94.11
2022-12-11T03:34:20.973Z,94.16
2022-12-11T03:36:55.145Z,93.98
2022-12-11T03:39:32.340Z,94.02
2022-12-11T03:42:10.658Z,93.89
2022-12-11T03:44:42.371Z,94.56
2022-12-11T03:47:19.509Z,94.53
2022-12-11T03:49:53.398Z,94.26
2022-12-11T03:52:27.632Z,93.91
2022-12-11T03:55:04.274Z,94.03
2022-12-11T03:57:38.838Z,94.10
2022-12-11T04:00:15.260Z,93.94
2022-12-11T04:03:12.969Z,93.65
2022-12-11T04:05:48.543Z,93.41
2022-12-11T04:08:21.935Z,93.32
2022-12-11T04:11:15.197Z,93.47
2022-12-11T04:14:07.883Z,93.42
2022-12-11T04:16:40.114Z,93.39
2022-12-11T04:19:30.167Z,93.27
2022-12-11T04:22:20.122Z,93.46
2022-12-11T04:24:53.552Z,93.18
2022-12-11T04:27:43.477Z,93.32
2022-12-11T04:30:18.711Z,93.28
2022-12-11T04:32:55.323Z,93.00
2022-12-11T04:35:27.548Z,93.00
2022-12-11T04:37:59.792Z,93.17
2022-12-11T04:40:32.002Z,92.98
2022-12-11T04:43:04.181Z,92.93
2022-12-11T04:45:36.839Z,92.85
2022-12-11T04:48:09.607Z,93.01
2022-12-11T04:50:41.718Z,92.82
2022-12-11T04:53:13.818Z,93.07
2022-12-11T04:55:46.008Z,92.93
2022-12-11T04:58:18.143Z,92.59
2022-12-11T05:00:50.361Z,92.51
2022-12-11T05:03:23.460Z,92.54
2022-12-11T05:05:56.422Z,92.83
2022-12-11T05:08:28.571Z,92.88
2022-12-11T05:11:02.098Z,93.25
2022-12-11T05:13:36.110Z,92.99
2022-12-11T05:16:10.017Z,93.04
2022-12-11T05:18:42.277Z,92.96
2022-12-11T05:21:16.261Z,92.89
2022-12-11T05:23:48.414Z,92.42
2022-12-11T05:26:21.664Z,92.45
2022-12-11T05:28:55.781Z,92.85
2022-12-11T05:31:29.388Z,92.99
2022-12-11T05:34:01.646Z,92.88
2022-12-11T05:36:35.193Z,92.71
2022-12-11T05:39:07.807Z,92.27
2022-12-11T05:41:40.301Z,92.50
2022-12-11T05:44:14.620Z,92.30
2022-12-11T05:46:46.836Z,92.68
2022-12-11T05:49:20.124Z,92.82
2022-12-11T05:51:52.548Z,92.94
2022-12-11T05:54:24.672Z,92.64
2022-12-11T05:56:56.788Z,92.98
2022-12-11T05:59:28.962Z,92.93
2022-12-11T06:02:01.233Z,92.79
2022-12-11T06:04:34.502Z,92.96
2022-12-11T06:07:06.768Z,92.46
2022-12-11T06:09:38.885Z,92.50
2022-12-11T06:12:11.090Z,92.53
2022-12-11T06:14:43.365Z,92.75
2022-12-11T06:17:15.695Z,92.74
2022-12-11T06:19:47.826Z,92.90
2022-12-11T06:22:20.019Z,92.93
2022-12-11T06:24:52.202Z,93.15
2022-12-11T06:27:24.549Z,93.26
2022-12-11T06:29:57.178Z,92.84
2022-12-11T06:32:29.769Z,92.55
2022-12-11T06:35:01.901Z,92.56
2022-12-11T06:37:34.075Z,92.41
2022-12-11T06:40:08.437Z,92.50
2022-12-11T06:42:40.583Z,92.26
2022-12-11T06:45:13.940Z,92.17
2022-12-11T06:47:46.030Z,92.35
2022-12-11T06:50:18.376Z,92.34
2022-12-11T06:52:50.567Z,92.59
2022-12-11T06:55:22.903Z,92.40
2022-12-11T06:57:55.348Z,92.01
2022-12-11T07:00:27.593Z,91.92
2022-12-11T07:02:59.754Z,92.07
2022-12-11T07:05:32.270Z,92.09
2022-12-11T07:08:04.541Z,91.31
2022-12-11T07:10:40.477Z,91.36
2022-12-11T07:13:12.588Z,91.61
2022-12-11T07:15:44.727Z,91.87
2022-12-11T07:18:16.956Z,91.82
2022-12-11T07:20:49.071Z,91.92
2022-12-11T07:23:21.378Z,91.87
2022-12-11T07:25:53.781Z,91.86
2022-12-11T07:28:26.337Z,91.75
2022-12-11T07:30:58.518Z,91.60
2022-12-11T07:33:30.659Z,91.61
2022-12-11T07:36:06.000Z,91.67
2022-12-11T07:38:38.636Z,91.34
2022-12-11T07:41:12.919Z,91.18
2022-12-11T07:43:45.554Z,90.79
2022-12-11T07:46:19.412Z,90.70
2022-12-11T07:48:52.589Z,90.63
2022-12-11T07:51:28.127Z,90.85
2022-12-11T07:54:02.255Z,90.56
2022-12-11T07:56:35.071Z,90.69
2022-12-11T07:59:08.440Z,90.58
2022-12-11T08:01:42.608Z,90.51
2022-12-11T08:04:16.042Z,90.19
2022-12-11T08:06:48.359Z,89.76
2022-12-11T08:09:22.768Z,89.86
2022-12-11T08:11:55.363Z,89.98
2022-12-11T08:14:30.525Z,89.84
2022-12-11T08:17:02.885Z,89.40
2022-12-11T08:19:35.398Z,89.50
2022-12-11T08:22:10.196Z,89.14
2022-12-11T08:24:42.419Z,89.63
2022-12-11T08:27:14.742Z,89.50
2022-12-11T08:29:47.674Z,89.57
2022-12-11T08:32:19.858Z,89.36
2022-12-11T08:34:53.961Z,89.70
2022-12-11T08:37:26.104Z,89.83
2022-12-11T08:39:58.518Z,89.79
2022-12-11T08:42:31.244Z,89.65
2022-12-11T08:45:03.835Z,89.57
2022-12-11T08:47:36.241Z,89.17
2022-12-11T08:50:09.584Z,89.04
2022-12-11T08:52:42.093Z,88.95
2022-12-11T08:55:14.467Z,89.05
2022-12-11T08:57:46.866Z,89.14
2022-12-11T09:00:20.163Z,88.93
2022-12-11T09:02:52.781Z,89.31
2022-12-11T09:05:25.189Z,89.16
2022-12-11T09:07:57.411Z,88.22
2022-12-11T09:10:30.392Z,88.10
2022-12-11T09:13:02.773Z,87.62
2022-12-11T09:15:36.183Z,87.73
2022-12-11T09:18:08.812Z,88.23
2022-12-11T09:20:41.466Z,88.14
2022-12-11T09:23:13.780Z,88.10
2022-12-11T09:25:46.126Z,88.11
2022-12-11T09:28:18.256Z,87.72
2022-12-11T09:30:50.803Z,87.72
2022-12-11T09:33:23.140Z,87.29
2022-12-11T09:36:01.865Z,87.51
2022-12-11T09:38:34.927Z,87.38
2022-12-11T09:41:36.688Z,87.26
2022-12-11T09:44:25.787Z,87.30
2022-12-11T09:46:58.777Z,86.91
2022-12-11T09:49:37.818Z,87.13
2022-12-11T09:52:16.786Z,87.49
2022-12-11T09:54:54.036Z,87.12
2022-12-11T09:57:45.882Z,87.49
2022-12-11T10:00:25.765Z,87.10
2022-12-11T10:03:15.713Z,86.94
2022-12-11T10:05:53.934Z,86.60
2022-12-11T10:08:33.120Z,86.87
2022-12-11T10:11:22.882Z,86.63
2022-12-11T10:14:03.267Z,86.55
2022-12-11T10:16:41.829Z,86.67
2022-12-11T10:19:16.519Z,85.72
2022-12-11T10:21:51.025Z,85.95
2022-12-11T10:25:07.755Z,86.12
2022-12-11T10:27:31.223Z,86.57
2022-12-11T10:30:16.003Z,86.28
2022-12-11T10:32:54.939Z,86.31
2022-12-11T10:35:32.575Z,86.38
2022-12-11T10:38:15.335Z,86.78
2022-12-11T10:40:54.564Z,86.96
2022-12-11T10:43:38.522Z,86.27
2022-12-11T10:46:19.417Z,86.51
2022-12-11T10:48:54.591Z,86.37
2022-12-11T10:51:35.387Z,86.07
2022-12-11T10:54:18.553Z,85.83
2022-12-11T10:56:52.096Z,85.62
2022-12-11T10:59:32.021Z,85.29
2022-12-11T11:02:06.105Z,85.69
2022-12-11T11:04:40.495Z,86.59
2022-12-11T11:07:20.086Z,87.27
2022-12-11T11:09:54.562Z,87.18
2022-12-11T11:12:29.098Z,86.91
2022-12-11T11:15:09.278Z,87.70
2022-12-11T11:17:54.622Z,86.37
2022-12-11T11:20:29.954Z,85.55
2022-12-11T11:23:05.018Z,85.09
2022-12-11T11:25:37.359Z,84.90
2022-12-11T11:28:19.724Z,83.59
2022-12-11T11:31:03.836Z,83.08
2022-12-11T11:33:39.174Z,82.43
2022-12-11T11:36:23.883Z,82.48
2022-12-11T11:39:10.074Z,82.42
2022-12-11T11:41:50.982Z,82.39
2022-12-11T11:44:30.650Z,83.18
2022-12-11T11:47:08.380Z,84.13
2022-12-11T11:49:53.007Z,83.44
2022-12-11T11:52:32.184Z,82.65
2022-12-11T11:55:10.960Z,81.68
2022-12-11T11:57:48.027Z,81.59
2022-12-11T12:00:27.598Z,81.99
2022-12-11T12:03:10.339Z,82.09
2022-12-11T12:05:51.437Z,82.12
2022-12-11T12:08:36.375Z,82.25
2022-12-11T12:11:20.424Z,82.62
2022-12-11T12:14:22.466Z,81.99
2022-12-11T12:17:07.756Z,81.52
2022-12-11T12:19:51.516Z,82.47
2022-12-11T12:22:45.059Z,83.29
2022-12-11T12:25:25.414Z,84.64
2022-12-11T12:28:06.584Z,85.48
2022-12-11T12:30:50.734Z,85.93
2022-12-11T12:33:32.554Z,85.28
2022-12-11T12:36:16.632Z,84.69
2022-12-11T12:38:56.581Z,85.12
2022-12-11T12:41:41.127Z,85.79
2022-12-11T12:44:18.361Z,84.47
2022-12-11T12:47:12.546Z,85.18
2022-12-11T12:49:46.976Z,85.18
2022-12-11T12:52:22.292Z,83.12
2022-12-11T12:55:18.907Z,83.63
2022-12-11T12:57:53.906Z,84.64
2022-12-11T13:00:35.762Z,83.56
2022-12-11T13:03:20.365Z,83.10
2022-12-11T13:06:02.388Z,83.53
2022-12-11T13:08:41.221Z,83.53
2022-12-11T13:11:16.774Z,84.21
2022-12-11T13:13:54.957Z,84.12
2022-12-11T13:16:39.261Z,84.30
2022-12-11T13:19:32.089Z,84.26
2022-12-11T13:22:21.405Z,83.57
2022-12-11T13:25:02.108Z,83.79
2022-12-11T13:27:43.674Z,83.25
2022-12-11T13:30:28.540Z,83.28
2022-12-11T13:33:07.048Z,83.61
2022-12-11T13:35:40.434Z,83.89
2022-12-11T13:38:20.945Z,84.63
2022-12-11T13:40:57.784Z,84.96
2022-12-11T13:43:32.387Z,84.70
2022-12-11T13:46:09.461Z,84.50
2022-12-11T13:48:47.854Z,84.61
2022-12-11T13:51:20.293Z,84.18
2022-12-11T13:54:03.116Z,84.32
2022-12-11T13:56:36.389Z,84.67
2022-12-11T13:59:19.665Z,84.63
2022-12-11T14:01:54.267Z,85.32
2022-12-11T14:04:28.427Z,85.65
2022-12-11T14:07:02.557Z,85.89
2022-12-11T14:09:34.988Z,85.90
2022-12-11T14:12:08.118Z,86.08
2022-12-11T14:14:47.217Z,85.89
2022-12-11T14:17:26.249Z,86.41
2022-12-11T14:20:01.061Z,86.51
2022-12-11T14:22:33.365Z,86.77
2022-12-11T14:25:22.411Z,85.74
2022-12-11T14:27:56.402Z,85.70
2022-12-11T14:30:31.267Z,85.37
2022-12-11T14:33:06.420Z,85.66
2022-12-11T14:35:43.073Z,85.80
2022-12-11T14:38:25.628Z,86.19
2022-12-11T14:41:01.068Z,85.88
2022-12-11T14:43:37.737Z,85.86
2022-12-11T14:46:15.642Z,85.98
2022-12-11T14:48:59.074Z,86.19
2022-12-11T14:51:36.040Z,86.17
2022-12-11T14:54:09.819Z,86.34
2022-12-11T14:56:42.564Z,86.53
2022-12-11T14:59:26.990Z,86.85
2022-12-11T15:02:23.105Z,86.75
2022-12-11T15:05:08.922Z,86.59
2022-12-11T15:07:41.763Z,86.30
2022-12-11T15:10:32.518Z,86.33
2022-12-11T15:13:05.956Z,86.44
2022-12-11T15:15:46.243Z,86.32
2022-12-11T15:18:23.834Z,86.36
2022-12-11T15:20:59.043Z,86.36
2022-12-11T15:23:32.228Z,86.49
2022-12-11T15:26:05.273Z,86.73
2022-12-11T15:28:39.374Z,86.94
2022-12-11T15:31:28.026Z,87.03
2022-12-11T15:34:00.973Z,86.88
2022-12-11T15:36:37.006Z,86.94
2022-12-11T15:39:10.243Z,86.66
2022-12-11T15:41:44.633Z,86.66
2022-12-11T15:44:22.738Z,86.45
2022-12-11T15:46:54.936Z,86.27
2022-12-11T15:49:27.217Z,86.56
2022-12-11T15:51:59.334Z,86.49
2022-12-11T15:54:31.943Z,86.72
2022-12-11T15:57:08.973Z,86.70
2022-12-11T15:59:41.517Z,86.85
2022-12-11T16:02:14.974Z,86.75
2022-12-11T16:04:47.323Z,86.70
2022-12-11T16:07:22.500Z,86.91
2022-12-11T16:09:55.093Z,86.80
2022-12-11T16:12:27.418Z,87.09
2022-12-11T16:15:01.283Z,87.20
2022-12-11T16:17:33.623Z,87.37
2022-12-11T16:20:06.914Z,87.79
2022-12-11T16:22:39.641Z,88.02
2022-12-11T16:25:14.549Z,88.01
2022-12-11T16:27:47.170Z,87.72
2022-12-11T16:30:19.530Z,87.63
2022-12-11T16:32:52.105Z,87.44
2022-12-11T16:35:24.735Z,87.38
2022-12-11T16:37:57.423Z,87.70
2022-12-11T16:40:29.728Z,87.80
2022-12-11T16:43:01.921Z,87.51
2022-12-11T16:45:34.648Z,87.47
2022-12-11T16:48:07.724Z,87.44
2022-12-11T16:50:42.413Z,87.34
2022-12-11T16:53:14.844Z,87.57
2022-12-11T16:55:47.228Z,87.50
2022-12-11T16:58:20.325Z,87.51
2022-12-11T17:00:52.859Z,87.18
2022-12-11T17:03:25.151Z,87.36
2022-12-11T17:05:58.110Z,87.23
2022-12-11T17:08:30.434Z,87.60
2022-12-11T17:11:05.651Z,87.51
2022-12-11T17:13:38.081Z,87.20
2022-12-11T17:16:12.303Z,87.08
2022-12-11T17:18:45.078Z,87.01
2022-12-11T17:21:19.089Z,87.10
2022-12-11T17:23:52.965Z,86.81
2022-12-11T17:26:25.620Z,87.22
2022-12-11T17:28:58.950Z,87.50
2022-12-11T17:31:31.302Z,87.42
2022-12-11T17:34:03.761Z,87.53
2022-12-11T17:36:36.223Z,87.41
2022-12-11T17:39:09.077Z,87.47
2022-12-11T17:41:41.376Z,86.89
2022-12-11T17:44:13.811Z,86.98
2022-12-11T17:46:46.085Z,86.67
2022-12-11T17:49:18.341Z,86.73
2022-12-11T17:51:55.468Z,86.82
2022-12-11T17:54:27.821Z,87.03
2022-12-11T17:57:00.312Z,87.04
2022-12-11T17:59:32.718Z,87.02
2022-12-11T18:02:05.251Z,87.16
2022-12-11T18:04:38.583Z,86.79
2022-12-11T18:07:10.731Z,86.66
2022-12-11T18:09:44.587Z,86.88
2022-12-11T18:12:17.061Z,86.90
2022-12-11T18:14:49.577Z,86.98
2022-12-11T18:17:22.425Z,87.12
2022-12-11T18:19:54.824Z,86.91
2022-12-11T18:22:28.825Z,86.90
2022-12-11T18:25:05.075Z,87.05
2022-12-11T18:27:42.100Z,86.94
2022-12-11T18:30:16.333Z,86.64
2022-12-11T18:32:48.774Z,86.99
2022-12-11T18:35:21.701Z,87.11
2022-12-11T18:37:54.064Z,87.08
2022-12-11T18:40:31.242Z,87.13
2022-12-11T18:43:03.505Z,87.23
2022-12-11T18:45:35.897Z,87.27
2022-12-11T18:48:11.389Z,87.35
2022-12-11T18:50:48.584Z,86.99
2022-12-11T18:53:21.181Z,86.95
2022-12-11T18:55:58.593Z,87.03
2022-12-11T18:58:32.619Z,87.03
2022-12-11T19:01:10.701Z,87.09
2022-12-11T19:03:43.500Z,87.39
2022-12-11T19:06:18.248Z,87.43
2022-12-11T19:08:50.973Z,87.60
2022-12-11T19:11:25.602Z,87.64
2022-12-11T19:13:59.068Z,87.85
2022-12-11T19:16:33.996Z,87.75
2022-12-11T19:19:09.981Z,87.89
2022-12-11T19:21:43.418Z,87.82
2022-12-11T19:24:19.192Z,87.92
2022-12-11T19:26:52.198Z,87.71
2022-12-11T19:29:32.554Z,87.83
2022-12-11T19:32:06.334Z,87.91
2022-12-11T19:34:39.622Z,88.29
2022-12-11T19:37:12.243Z,88.32
2022-12-11T19:39:44.942Z,88.48
2022-12-11T19:42:17.314Z,88.56
2022-12-11T19:44:49.483Z,88.46
2022-12-11T19:47:21.718Z,88.15
2022-12-11T19:49:54.776Z,87.97
2022-12-11T19:52:28.670Z,87.66
2022-12-11T19:55:05.896Z,87.95
2022-12-11T19:57:38.591Z,87.80
2022-12-11T20:00:12.744Z,87.84
2022-12-11T20:02:45.243Z,87.69
2022-12-11T20:05:17.994Z,87.38
2022-12-11T20:07:50.857Z,87.28
2022-12-11T20:10:23.331Z,87.32
2022-12-11T20:12:56.761Z,87.16
2022-12-11T20:15:30.785Z,86.89
2022-12-11T20:18:04.278Z,86.94
2022-12-11T20:20:36.593Z,87.18
2022-12-11T20:23:10.578Z,87.55
2022-12-11T20:25:43.341Z,87.53
2022-12-11T20:28:15.722Z,87.46
2022-12-11T20:30:50.094Z,87.84
2022-12-11T20:33:22.681Z,87.78
2022-12-11T20:35:55.269Z,87.58
2022-12-11T20:38:32.816Z,87.96
2022-12-11T20:41:07.348Z,87.69
2022-12-11T20:43:39.973Z,87.67
2022-12-11T20:46:15.107Z,88.16
2022-12-11T20:48:48.179Z,88.24
2022-12-11T20:51:25.990Z,88.09
2022-12-11T20:53:59.858Z,88.31
2022-12-11T20:56:33.692Z,88.06
2022-12-11T20:59:05.986Z,88.04
2022-12-11T21:01:38.187Z,87.63
2022-12-11T21:04:10.882Z,87.31
2022-12-11T21:06:43.092Z,86.87
2022-12-11T21:09:17.878Z,87.24
2022-12-11T21:11:50.756Z,87.31
2022-12-11T21:14:23.181Z,87.58
2022-12-11T21:16:55.591Z,87.53
2022-12-11T21:19:28.236Z,87.24
2022-12-11T21:22:00.767Z,87.31
2022-12-11T21:24:33.193Z,87.60
2022-12-11T21:27:05.641Z,87.70
2022-12-11T21:29:38.064Z,87.72
2022-12-11T21:32:10.565Z,87.57
2022-12-11T21:34:42.929Z,87.12
2022-12-11T21:37:15.146Z,87.34
2022-12-11T21:39:47.440Z,87.36
2022-12-11T21:42:20.103Z,87.68
2022-12-11T21:47:44.775Z,87.57
2022-12-11T21:50:17.144Z,87.52
2022-12-11T21:52:49.478Z,87.26
2022-12-11T21:55:21.781Z,87.23
2022-12-11T21:57:54.729Z,87.21
2022-12-11T22:00:28.288Z,87.31
2022-12-11T22:03:00.562Z,87.51
2022-12-11T22:05:33.874Z,87.54
2022-12-11T22:08:07.196Z,87.59
2022-12-11T22:10:39.541Z,87.81
2022-12-11T22:13:11.736Z,87.78
2022-12-11T22:15:43.989Z,87.76
2022-12-11T22:18:16.674Z,87.61
2022-12-11T22:20:49.519Z,87.54
2022-12-11T22:23:23.981Z,87.30
2022-12-11T22:25:56.894Z,87.24
2022-12-11T22:28:29.279Z,87.32
2022-12-11T22:31:02.297Z,87.04
2022-12-11T22:33:34.773Z,87.25
2022-12-11T22:36:08.007Z,87.22
2022-12-11T22:38:40.721Z,87.02
2022-12-11T22:41:22.184Z,86.93
2022-12-11T22:43:55.649Z,86.59
2022-12-11T22:46:30.830Z,86.63
2022-12-11T22:49:03.251Z,86.40
2022-12-11T22:51:35.755Z,86.31
2022-12-11T22:54:08.236Z,86.13
2022-12-11T22:56:41.536Z,86.43
2022-12-11T22:59:13.846Z,86.69
2022-12-11T23:01:46.370Z,86.77
2022-12-11T23:04:18.651Z,87.06
2022-12-11T23:06:51.456Z,87.05
2022-12-11T23:09:24.501Z,87.17
2022-12-11T23:11:58.665Z,87.07
2022-12-11T23:14:31.029Z,86.87
2022-12-11T23:17:03.192Z,86.91
2022-12-11T23:19:36.518Z,86.90
2022-12-11T23:22:09.227Z,86.55
2022-12-11T23:24:41.878Z,86.89
2022-12-11T23:27:14.494Z,87.38
2022-12-11T23:29:46.966Z,87.57
2022-12-11T23:32:19.253Z,87.82
2022-12-11T23:34:52.176Z,88.03
2022-12-11T23:37:24.739Z,88.14
2022-12-11T23:39:57.032Z,88.11
2022-12-11T23:42:29.519Z,88.15
2022-12-11T23:45:02.386Z,88.02
2022-12-11T23:47:34.699Z,88.02
2022-12-11T23:50:08.451Z,87.68
2022-12-11T23:52:40.755Z,87.66
2022-12-11T23:55:14.061Z,87.67
2022-12-11T23:57:46.507Z,87.75
